Time;durP1;ratioP1;P1;durP2;ratioP2;P2;SDS_P1;SDS_P2;PMS_P1;PMS_P2;Temp;Humidity;BMP_temperature;BMP_pressure;BME280_temperature;BME280_humidity;BME280_pressure;Samples;Min_cycle;Max_cycle;Signal;HPM_P1;HPM_P2
2024/04/21 05:00:19;;;;;;;5.70;3.33;;;;;;;;;;6350578;22;20926;-68
2024/04/21 05:02:45;;;;;;;3.37;2.90;;;;;;;;;;5211195;27;20568;-67
2024/04/21 05:05:11;;;;;;;4.73;2.80;;;;;;;;;;5211044;27;20460;-67
2024/04/21 05:07:37;;;;;;;4.87;2.43;;;;;;;;;;5210630;27;20445;-68
2024/04/21 05:10:03;;;;;;;4.07;2.40;;;;;;;;;;5210193;27;20453;-69
2024/04/21 05:12:29;;;;;;;4.47;3.00;;;;;;;;;;5208860;27;20477;-69
2024/04/21 05:14:55;;;;;;;2.97;2.33;;;;;;;;;;5211246;27;20580;-67
2024/04/21 05:17:21;;;;;;;7.30;2.70;;;;;;;;;;5210571;27;20453;-69
2024/04/21 05:19:47;;;;;;;7.23;2.67;;;;;;;;;;5211457;27;20996;-69
2024/04/21 05:22:13;;;;;;;6.83;3.10;;;;;;;;;;5211036;27;20605;-68
2024/04/21 05:24:39;;;;;;;7.00;2.90;;;;;;;;;;5211087;27;20442;-70
2024/04/21 05:27:05;;;;;;;7.93;2.63;;;;;;;;;;5210463;27;20445;-70
2024/04/21 05:29:31;;;;;;;8.50;2.93;;;;;;;;;;5210950;27;20453;-70
2024/04/21 05:31:57;;;;;;;5.60;2.90;;;;;;;;;;5209039;27;20465;-69
2024/04/21 05:34:23;;;;;;;7.47;2.87;;;;;;;;;;5210463;27;20500;-70
2024/04/21 05:36:49;;;;;;;8.57;3.00;;;;;;;;;;5210110;27;20448;-70
2024/04/21 05:39:15;;;;;;;4.97;3.23;;;;;;;;;;5210387;27;20988;-69
2024/04/21 05:41:41;;;;;;;15.87;3.60;;;;;;;;;;5210206;27;20461;-69
2024/04/21 05:44:07;;;;;;;4.47;2.27;;;;;;;;;;5210305;27;20985;-69
2024/04/21 05:46:33;;;;;;;4.13;2.70;;;;;;;;;;5210194;27;20456;-69
2024/04/21 05:49:02;;;;;;;5.40;2.70;;;;;;;;;;5210101;27;20516;-69
2024/04/21 05:51:28;;;;;;;4.37;2.60;;;;;;;;;;5210239;27;20524;-68
2024/04/21 05:53:54;;;;;;;5.67;3.80;;;;;;;;;;5210495;27;20798;-68
2024/04/21 05:56:20;;;;;;;5.30;3.03;;;;;;;;;;5210045;27;20503;-67
2024/04/21 05:58:46;;;;;;;9.17;3.63;;;;;;;;;;5209983;27;20569;-68
2024/04/21 06:01:12;;;;;;;7.50;3.00;;;;;;;;;;5210108;27;20523;-69
2024/04/21 06:03:38;;;;;;;6.73;3.13;;;;;;;;;;5210299;27;20449;-68
2024/04/21 06:06:06;;;;;;;9.43;3.80;;;;;;;;;;5210439;27;20573;-67
2024/04/21 06:08:32;;;;;;;6.37;2.60;;;;;;;;;;5210532;27;20441;-70
2024/04/21 06:10:58;;;;;;;6.50;2.63;;;;;;;;;;5208206;27;20473;-69
2024/04/21 06:13:24;;;;;;;5.00;2.70;;;;;;;;;;5210117;27;20449;-69
2024/04/21 06:15:50;;;;;;;11.07;2.70;;;;;;;;;;5210253;27;20441;-69
2024/04/21 06:18:16;;;;;;;10.67;2.87;;;;;;;;;;5210055;27;20854;-70
2024/04/21 06:20:42;;;;;;;11.23;3.13;;;;;;;;;;5209805;27;21011;-69
2024/04/21 06:23:08;;;;;;;4.77;2.90;;;;;;;;;;5208618;27;20502;-70
2024/04/21 06:25:34;;;;;;;8.93;2.47;;;;;;;;;;5209948;27;20457;-69
2024/04/21 06:27:59;;;;;;;10.70;3.03;;;;;;;;;;5209789;27;20441;-70
2024/04/21 06:30:25;;;;;;;6.67;2.50;;;;;;;;;;5209674;27;20449;-69
2024/04/21 06:32:51;;;;;;;4.90;2.40;;;;;;;;;;5210052;27;20528;-71
2024/04/21 06:35:17;;;;;;;8.80;2.50;;;;;;;;;;5209675;27;20592;-69
2024/04/21 06:37:43;;;;;;;7.57;2.80;;;;;;;;;;5208989;27;21016;-69
2024/04/21 06:40:09;;;;;;;14.00;3.77;;;;;;;;;;5209369;27;20465;-69
2024/04/21 06:42:35;;;;;;;8.00;3.17;;;;;;;;;;5207720;27;20561;-69
2024/04/21 06:45:02;;;;;;;4.67;2.53;;;;;;;;;;5209662;27;20453;-69
2024/04/21 06:47:28;;;;;;;5.00;2.70;;;;;;;;;;5209158;27;20824;-69
2024/04/21 06:49:54;;;;;;;14.53;3.30;;;;;;;;;;5209667;27;20442;-69
2024/04/21 06:52:20;;;;;;;11.50;3.13;;;;;;;;;;5209351;27;20481;-70
2024/04/21 06:54:46;;;;;;;7.70;3.30;;;;;;;;;;5209492;27;20512;-69
2024/04/21 06:57:12;;;;;;;10.27;3.70;;;;;;;;;;5209172;27;20444;-69
2024/04/21 06:59:39;;;;;;;10.27;3.43;;;;;;;;;;5209623;27;20497;-69
2024/04/21 07:02:05;;;;;;;6.50;3.70;;;;;;;;;;5209916;27;21158;-69
2024/04/21 07:04:32;;;;;;;16.53;4.30;;;;;;;;;;5211582;27;20497;-70
2024/04/21 07:06:58;;;;;;;22.90;5.10;;;;;;;;;;5210320;27;20461;-68
2024/04/21 07:09:24;;;;;;;8.67;2.83;;;;;;;;;;5208870;27;21028;-67
2024/04/21 07:11:51;;;;;;;13.60;3.70;;;;;;;;;;5208175;27;20585;-67
2024/04/21 07:14:17;;;;;;;6.20;3.20;;;;;;;;;;5209789;27;20853;-67
2024/04/21 07:16:43;;;;;;;15.27;3.57;;;;;;;;;;5208864;27;20449;-67
2024/04/21 07:19:09;;;;;;;10.00;4.53;;;;;;;;;;5209498;27;21044;-67
2024/04/21 07:21:35;;;;;;;12.00;4.53;;;;;;;;;;5209282;27;20469;-67
2024/04/21 07:24:01;;;;;;;8.37;3.67;;;;;;;;;;5210011;27;20449;-67
2024/04/21 07:26:27;;;;;;;8.30;2.70;;;;;;;;;;5209425;27;20548;-68
2024/04/21 07:28:53;;;;;;;10.50;3.20;;;;;;;;;;5209572;27;20464;-67
2024/04/21 07:31:19;;;;;;;10.40;3.57;;;;;;;;;;5209560;27;20465;-68
2024/04/21 07:33:45;;;;;;;5.30;3.40;;;;;;;;;;5208775;27;20454;-68
2024/04/21 07:36:11;;;;;;;6.33;2.93;;;;;;;;;;5209603;27;20512;-66
2024/04/21 07:38:37;;;;;;;7.33;3.20;;;;;;;;;;5208483;27;20452;-65
2024/04/21 07:41:03;;;;;;;7.83;2.90;;;;;;;;;;5209076;27;20484;-68
2024/04/21 07:43:29;;;;;;;8.10;3.07;;;;;;;;;;5209914;27;21548;-68
2024/04/21 07:45:57;;;;;;;5.47;3.20;;;;;;;;;;5209727;27;20509;-68
2024/04/21 07:48:23;;;;;;;7.43;2.70;;;;;;;;;;5209217;27;20449;-66
2024/04/21 07:50:49;;;;;;;7.53;3.00;;;;;;;;;;5210210;27;20525;-66
2024/04/21 07:53:15;;;;;;;6.27;3.23;;;;;;;;;;5207693;27;20464;-67
2024/04/21 07:55:41;;;;;;;7.47;2.70;;;;;;;;;;5209074;27;20465;-67
2024/04/21 07:58:07;;;;;;;8.00;3.60;;;;;;;;;;5208650;27;20450;-67
2024/04/21 08:00:36;;;;;;;8.43;3.50;;;;;;;;;;5208925;27;20512;-66
2024/04/21 08:03:02;;;;;;;10.37;2.50;;;;;;;;;;5209384;27;20792;-67
2024/04/21 08:05:29;;;;;;;8.33;2.97;;;;;;;;;;5208891;27;20500;-67
2024/04/21 08:07:54;;;;;;;5.83;2.70;;;;;;;;;;5208255;27;20449;-67
2024/04/21 08:10:20;;;;;;;10.60;2.47;;;;;;;;;;5208460;27;20505;-67
2024/04/21 08:12:46;;;;;;;5.23;2.33;;;;;;;;;;5208424;27;20453;-67
2024/04/21 08:15:12;;;;;;;13.53;2.87;;;;;;;;;;5208735;27;20549;-68
2024/04/21 08:17:38;;;;;;;10.77;2.40;;;;;;;;;;5208331;27;20456;-67
2024/04/21 08:20:05;;;;;;;5.17;2.70;;;;;;;;;;5209232;27;20465;-68
2024/04/21 08:22:31;;;;;;;5.07;2.00;;;;;;;;;;5209423;27;20798;-67
2024/04/21 08:24:57;;;;;;;11.20;2.57;;;;;;;;;;5209563;27;20800;-66
2024/04/21 08:27:23;;;;;;;10.70;2.60;;;;;;;;;;5209001;27;20505;-68
2024/04/21 08:29:49;;;;;;;9.10;2.60;;;;;;;;;;5209670;27;20444;-70
2024/04/21 08:32:15;;;;;;;11.47;2.60;;;;;;;;;;5206836;27;20831;-71
2024/04/21 08:34:41;;;;;;;7.93;2.73;;;;;;;;;;5174615;27;20454;-69
2024/04/21 08:37:07;;;;;;;5.63;1.87;;;;;;;;;;5199485;27;20522;-70
2024/04/21 08:39:33;;;;;;;4.07;2.17;;;;;;;;;;5208654;27;20445;-71
2024/04/21 08:41:59;;;;;;;10.33;2.30;;;;;;;;;;5208814;27;20564;-72
2024/04/21 08:44:25;;;;;;;10.63;2.50;;;;;;;;;;5207321;27;20449;-71
2024/04/21 08:46:51;;;;;;;5.93;2.17;;;;;;;;;;5210381;27;20516;-70
2024/04/21 08:49:19;;;;;;;16.33;2.70;;;;;;;;;;5212047;27;20452;-70
2024/04/21 08:51:46;;;;;;;6.03;2.10;;;;;;;;;;5211427;27;20589;-71
2024/04/21 08:54:12;;;;;;;7.60;2.00;;;;;;;;;;5211851;27;20529;-69
2024/04/21 08:56:42;;;;;;;10.13;2.00;;;;;;;;;;5212147;27;20453;-70
2024/04/21 08:59:09;;;;;;;4.83;1.80;;;;;;;;;;5212354;27;20530;-70
2024/04/21 09:01:35;;;;;;;8.27;2.90;;;;;;;;;;5211453;27;20464;-69
2024/04/21 09:04:02;;;;;;;3.93;1.60;;;;;;;;;;5211428;27;20461;-69
2024/04/21 09:06:29;;;;;;;6.73;1.80;;;;;;;;;;5212393;27;20440;-70
2024/04/21 09:08:55;;;;;;;12.00;2.47;;;;;;;;;;5211361;27;20445;-69
2024/04/21 09:11:21;;;;;;;4.03;1.80;;;;;;;;;;5211406;27;20813;-70
2024/04/21 09:13:48;;;;;;;7.47;2.30;;;;;;;;;;5210264;27;20464;-71
2024/04/21 09:16:14;;;;;;;5.47;1.40;;;;;;;;;;5211792;27;20496;-70
2024/04/21 09:18:41;;;;;;;3.57;1.93;;;;;;;;;;5210771;27;20508;-69
2024/04/21 09:21:07;;;;;;;2.33;1.70;;;;;;;;;;5211364;27;20456;-70
2024/04/21 09:23:34;;;;;;;5.17;2.23;;;;;;;;;;5211342;27;20486;-70
2024/04/21 09:26:00;;;;;;;4.23;1.70;;;;;;;;;;5212484;27;20493;-70
2024/04/21 09:28:26;;;;;;;3.97;1.50;;;;;;;;;;5211749;27;20445;-70
2024/04/21 09:30:52;;;;;;;9.00;2.50;;;;;;;;;;5211093;27;20592;-70
2024/04/21 09:33:18;;;;;;;5.70;2.23;;;;;;;;;;5210565;27;20504;-70
2024/04/21 09:35:44;;;;;;;11.77;2.30;;;;;;;;;;5210482;27;20534;-71
2024/04/21 09:38:10;;;;;;;6.30;2.20;;;;;;;;;;5210485;27;20445;-71
2024/04/21 09:40:37;;;;;;;3.53;1.90;;;;;;;;;;5210512;27;20469;-71
2024/04/21 09:43:04;;;;;;;4.63;2.20;;;;;;;;;;5210552;27;21262;-70
2024/04/21 09:45:30;;;;;;;5.50;2.73;;;;;;;;;;5211039;27;20497;-70
2024/04/21 09:47:58;;;;;;;12.33;2.40;;;;;;;;;;5210409;27;20464;-71
2024/04/21 09:50:25;;;;;;;12.83;2.57;;;;;;;;;;5210372;27;20445;-70
2024/04/21 09:52:53;;;;;;;5.17;3.03;;;;;;;;;;5208911;27;20500;-70
2024/04/21 09:55:19;;;;;;;4.03;1.90;;;;;;;;;;5210318;27;20552;-70
2024/04/21 09:57:47;;;;;;;4.40;2.00;;;;;;;;;;5207955;27;20808;-70
2024/04/21 10:00:18;;;;;;;7.53;2.03;;;;;;;;;;5210809;27;20522;-70
2024/04/21 10:02:46;;;;;;;5.37;2.00;;;;;;;;;;5210360;27;20453;-70
2024/04/21 10:05:17;;;;;;;2.40;1.37;;;;;;;;;;5209912;27;20500;-70
2024/04/21 10:07:44;;;;;;;6.40;1.93;;;;;;;;;;5210092;27;20438;-70
2024/04/21 10:10:10;;;;;;;4.37;2.40;;;;;;;;;;5210171;27;20493;-70
2024/04/21 10:12:37;;;;;;;5.30;1.90;;;;;;;;;;5210097;27;20573;-70
2024/04/21 10:15:07;;;;;;;9.37;2.67;;;;;;;;;;5209654;27;20569;-70
2024/04/21 10:17:33;;;;;;;6.77;1.87;;;;;;;;;;5209210;27;20834;-70
2024/04/21 10:20:06;;;;;;;7.30;2.37;;;;;;;;;;5208995;27;20457;-70
2024/04/21 10:22:36;;;;;;;4.97;1.67;;;;;;;;;;5207929;27;21083;-70
2024/04/21 10:25:03;;;;;;;7.43;1.70;;;;;;;;;;5209941;27;20505;-72
2024/04/21 10:27:29;;;;;;;5.30;2.07;;;;;;;;;;5209683;27;20457;-71
2024/04/21 10:29:55;;;;;;;4.50;1.87;;;;;;;;;;5209165;27;20914;-70
2024/04/21 10:32:25;;;;;;;4.70;2.13;;;;;;;;;;5208187;27;20473;-71
2024/04/21 10:34:51;;;;;;;9.83;2.73;;;;;;;;;;5208097;27;20599;-71
2024/04/21 10:37:21;;;;;;;3.57;1.60;;;;;;;;;;5207725;27;20919;-71
2024/04/21 10:39:47;;;;;;;7.70;1.70;;;;;;;;;;5207848;27;20781;-72
2024/04/21 10:42:15;;;;;;;6.37;2.73;;;;;;;;;;5207617;27;20582;-71
2024/04/21 10:44:41;;;;;;;5.30;2.13;;;;;;;;;;5207325;27;20505;-70
2024/04/21 10:47:08;;;;;;;11.20;2.40;;;;;;;;;;5207904;27;20445;-70
2024/04/21 10:49:33;;;;;;;4.00;2.00;;;;;;;;;;5208497;27;20457;-71
2024/04/21 10:52:00;;;;;;;4.00;1.80;;;;;;;;;;5207989;27;21024;-70
2024/04/21 10:54:26;;;;;;;5.07;2.00;;;;;;;;;;5207814;27;20457;-70
2024/04/21 10:56:54;;;;;;;3.87;1.53;;;;;;;;;;5207509;27;20854;-70
2024/04/21 10:59:19;;;;;;;5.40;1.70;;;;;;;;;;5208800;27;20496;-71
2024/04/21 11:01:46;;;;;;;4.27;1.97;;;;;;;;;;5207730;27;20585;-71
2024/04/21 11:04:13;;;;;;;4.40;1.77;;;;;;;;;;5208063;27;20437;-71
2024/04/21 11:06:39;;;;;;;5.70;1.80;;;;;;;;;;5207967;27;20453;-70
2024/04/21 11:09:08;;;;;;;6.50;2.00;;;;;;;;;;5207132;27;20670;-70
2024/04/21 11:11:34;;;;;;;3.33;1.93;;;;;;;;;;5206282;27;20530;-70
2024/04/21 11:14:01;;;;;;;7.97;1.87;;;;;;;;;;5266619;21;20545;-76
2024/04/21 11:16:30;;;;;;;11.20;1.93;;;;;;;;;;5251085;27;20451;-74
2024/04/21 11:18:57;;;;;;;4.80;2.07;;;;;;;;;;5281213;27;20853;-74
2024/04/21 11:21:23;;;;;;;3.70;2.40;;;;;;;;;;5282243;27;20454;-75
2024/04/21 11:23:49;;;;;;;4.13;1.80;;;;;;;;;;5265488;27;20566;-74
2024/04/21 11:26:17;;;;;;;9.50;1.70;;;;;;;;;;5246029;27;20503;-75
2024/04/21 11:28:43;;;;;;;5.57;1.87;;;;;;;;;;5213403;27;20456;-77
2024/04/21 11:31:09;;;;;;;6.53;1.93;;;;;;;;;;5243024;27;20456;-76
2024/04/21 11:33:36;;;;;;;5.33;2.30;;;;;;;;;;5242524;27;20533;-75
2024/04/21 11:36:02;;;;;;;9.37;2.50;;;;;;;;;;5242757;27;20455;-78
2024/04/21 11:38:30;;;;;;;3.30;1.63;;;;;;;;;;5242661;27;20459;-76
2024/04/21 11:40:56;;;;;;;6.03;2.00;;;;;;;;;;5249673;27;20460;-75
2024/04/21 11:43:22;;;;;;;4.80;2.17;;;;;;;;;;5247812;27;20510;-77
2024/04/21 11:45:48;;;;;;;2.60;1.97;;;;;;;;;;5250693;27;20448;-77
2024/04/21 11:48:14;;;;;;;6.80;1.73;;;;;;;;;;5250898;27;20547;-76
2024/04/21 11:50:40;;;;;;;4.60;2.20;;;;;;;;;;5250997;27;20454;-77
2024/04/21 11:53:06;;;;;;;4.00;1.53;;;;;;;;;;5248331;27;20995;-78
2024/04/21 11:55:32;;;;;;;5.47;1.90;;;;;;;;;;5216523;27;20468;-77
2024/04/21 11:57:58;;;;;;;11.63;2.37;;;;;;;;;;5245275;27;20451;-77
2024/04/21 12:00:24;;;;;;;6.27;2.33;;;;;;;;;;5246916;27;20500;-77
2024/04/21 12:02:50;;;;;;;5.80;1.90;;;;;;;;;;5245148;27;20460;-77
2024/04/21 12:05:17;;;;;;;7.90;1.80;;;;;;;;;;5215980;27;20475;-77
2024/04/21 12:07:43;;;;;;;5.80;2.90;;;;;;;;;;5244176;27;20898;-77
2024/04/21 12:10:09;;;;;;;3.60;1.87;;;;;;;;;;5244167;27;20568;-78
2024/04/21 12:12:35;;;;;;;3.37;1.87;;;;;;;;;;5244598;27;20508;-78
2024/04/21 12:15:01;;;;;;;3.63;1.93;;;;;;;;;;5244377;27;20467;-78
2024/04/21 12:17:28;;;;;;;10.40;2.20;;;;;;;;;;5244242;27;20456;-78
2024/04/21 12:19:54;;;;;;;8.27;2.63;;;;;;;;;;5245740;27;20533;-78
2024/04/21 12:22:20;;;;;;;3.37;2.10;;;;;;;;;;5247496;27;20463;-78
2024/04/21 12:24:46;;;;;;;6.37;2.40;;;;;;;;;;5247552;27;21255;-77
2024/04/21 12:27:12;;;;;;;7.90;2.37;;;;;;;;;;5246858;27;20451;-78
2024/04/21 12:29:38;;;;;;;3.77;1.60;;;;;;;;;;5247075;27;20568;-78
2024/04/21 12:32:04;;;;;;;5.40;1.90;;;;;;;;;;5246814;27;20503;-78
2024/04/21 12:34:30;;;;;;;5.30;2.20;;;;;;;;;;5247196;27;21099;-78
2024/04/21 12:36:56;;;;;;;4.70;2.17;;;;;;;;;;5247236;27;20455;-78
2024/04/21 12:39:22;;;;;;;3.53;1.70;;;;;;;;;;5218361;27;20531;-78
2024/04/21 12:41:48;;;;;;;3.57;1.80;;;;;;;;;;5253238;27;20456;-77
2024/04/21 12:44:14;;;;;;;4.40;1.90;;;;;;;;;;5247266;27;20477;-77
2024/04/21 12:46:40;;;;;;;6.87;2.27;;;;;;;;;;5217846;27;20478;-78
2024/04/21 12:49:06;;;;;;;3.63;1.90;;;;;;;;;;5246397;27;20463;-77
2024/04/21 12:51:32;;;;;;;3.93;2.03;;;;;;;;;;5246410;27;20448;-78
2024/04/21 12:53:58;;;;;;;5.13;1.70;;;;;;;;;;5239342;27;20482;-76
2024/04/21 12:56:24;;;;;;;5.60;1.90;;;;;;;;;;5269452;27;20459;-78
2024/04/21 12:58:50;;;;;;;7.17;2.27;;;;;;;;;;5261606;27;20513;-78
2024/04/21 13:01:16;;;;;;;5.33;2.20;;;;;;;;;;5222983;27;20528;-79
2024/04/21 13:03:42;;;;;;;5.13;1.70;;;;;;;;;;5219908;27;20583;-78
2024/04/21 13:06:08;;;;;;;2.60;1.90;;;;;;;;;;5199765;27;20489;-78
2024/04/21 13:08:34;;;;;;;12.73;2.47;;;;;;;;;;5186681;27;21039;-78
2024/04/21 13:11:00;;;;;;;4.30;1.70;;;;;;;;;;5214095;27;20870;-77
2024/04/21 13:13:26;;;;;;;4.80;1.37;;;;;;;;;;5215484;27;20476;-78
2024/04/21 13:15:52;;;;;;;2.30;1.43;;;;;;;;;;5221090;27;20972;-78
2024/04/21 13:18:19;;;;;;;2.60;2.30;;;;;;;;;;5221414;27;20453;-76
2024/04/21 13:20:45;;;;;;;3.40;2.03;;;;;;;;;;5195857;27;20495;-77
2024/04/21 13:23:11;;;;;;;7.07;1.50;;;;;;;;;;5222885;27;20824;-77
2024/04/21 13:25:37;;;;;;;6.77;1.67;;;;;;;;;;5185514;27;20461;-78
2024/04/21 13:28:04;;;;;;;7.90;1.90;;;;;;;;;;5211913;27;20449;-77
2024/04/21 13:30:32;;;;;;;12.17;2.07;;;;;;;;;;5184435;27;20590;-77
2024/04/21 13:32:58;;;;;;;2.43;1.43;;;;;;;;;;5211501;27;20524;-78
2024/04/21 13:35:24;;;;;;;3.20;1.90;;;;;;;;;;5239994;27;20521;-78
2024/04/21 13:37:50;;;;;;;2.87;1.87;;;;;;;;;;5246868;27;20448;-77
2024/04/21 13:40:16;;;;;;;5.43;2.00;;;;;;;;;;5245495;27;20579;-77
2024/04/21 13:42:42;;;;;;;7.67;2.00;;;;;;;;;;5252474;27;20444;-77
2024/04/21 13:45:08;;;;;;;1.83;1.80;;;;;;;;;;5255670;27;20528;-76
2024/04/21 13:47:34;;;;;;;2.47;1.93;;;;;;;;;;5229589;27;20508;-77
2024/04/21 13:50:00;;;;;;;3.97;1.80;;;;;;;;;;5218250;27;20463;-77
2024/04/21 13:52:26;;;;;;;6.40;1.77;;;;;;;;;;5246689;27;20523;-77
2024/04/21 13:54:52;;;;;;;2.30;1.70;;;;;;;;;;5249727;27;20516;-78
2024/04/21 13:57:18;;;;;;;4.13;1.80;;;;;;;;;;5219792;27;20507;-76
2024/04/21 13:59:44;;;;;;;8.57;2.20;;;;;;;;;;5221035;27;20532;-77
2024/04/21 14:02:13;;;;;;;4.60;2.10;;;;;;;;;;5216254;27;20974;-77
2024/04/21 14:04:39;;;;;;;1.70;1.47;;;;;;;;;;5218956;27;20469;-77
2024/04/21 14:07:06;;;;;;;6.03;1.90;;;;;;;;;;5217100;27;20499;-77
2024/04/21 14:09:32;;;;;;;3.13;1.60;;;;;;;;;;5186224;27;20514;-77
2024/04/21 14:11:59;;;;;;;4.67;1.43;;;;;;;;;;5215278;27;20460;-77
2024/04/21 14:14:25;;;;;;;3.07;1.93;;;;;;;;;;5190355;27;20496;-76
2024/04/21 14:16:51;;;;;;;3.53;2.07;;;;;;;;;;5221688;27;20461;-78
2024/04/21 14:19:17;;;;;;;1.50;1.43;;;;;;;;;;5221475;27;20530;-77
2024/04/21 14:21:42;;;;;;;3.13;1.67;;;;;;;;;;5215061;27;20969;-77
2024/04/21 14:24:08;;;;;;;3.80;1.47;;;;;;;;;;5214085;27;20481;-77
2024/04/21 14:26:34;;;;;;;1.40;1.30;;;;;;;;;;5216897;27;20481;-77
2024/04/21 14:29:00;;;;;;;1.67;1.60;;;;;;;;;;5220050;27;20481;-76
2024/04/21 14:31:26;;;;;;;2.33;1.40;;;;;;;;;;5228038;27;20469;-76
2024/04/21 14:33:52;;;;;;;7.87;1.87;;;;;;;;;;5224642;27;21080;-77
2024/04/21 14:36:18;;;;;;;3.93;1.43;;;;;;;;;;5212860;27;20461;-77
2024/04/21 14:38:45;;;;;;;2.47;1.60;;;;;;;;;;5212947;27;20547;-78
2024/04/21 14:41:11;;;;;;;2.10;1.50;;;;;;;;;;5213024;27;21040;-77
2024/04/21 14:43:37;;;;;;;1.87;1.50;;;;;;;;;;5211794;27;20457;-77
2024/04/21 14:46:04;;;;;;;1.30;1.23;;;;;;;;;;5218932;27;20598;-77
2024/04/21 14:48:29;;;;;;;3.53;1.60;;;;;;;;;;5216942;27;20492;-78
2024/04/21 14:50:56;;;;;;;1.77;1.60;;;;;;;;;;5216853;27;20465;-77
2024/04/21 14:53:22;;;;;;;3.10;1.80;;;;;;;;;;5187716;27;20478;-79
2024/04/21 14:55:48;;;;;;;4.40;1.80;;;;;;;;;;5240387;27;20563;-78
2024/04/21 14:58:14;;;;;;;2.10;1.80;;;;;;;;;;5250181;27;20459;-77
2024/04/21 15:00:40;;;;;;;1.40;1.30;;;;;;;;;;5217728;27;20531;-78
2024/04/21 15:03:06;;;;;;;2.30;1.40;;;;;;;;;;5249334;27;20825;-78
2024/04/21 15:05:32;;;;;;;3.17;1.30;;;;;;;;;;5222835;27;20520;-79
2024/04/21 15:07:58;;;;;;;1.70;1.40;;;;;;;;;;5249652;27;20452;-79
2024/04/21 15:10:24;;;;;;;1.80;1.20;;;;;;;;;;5257008;27;20467;-78
2024/04/21 15:12:50;;;;;;;2.27;1.70;;;;;;;;;;5222226;27;20479;-78
2024/04/21 15:15:16;;;;;;;1.70;1.30;;;;;;;;;;5222700;27;20464;-78
2024/04/21 15:17:42;;;;;;;1.37;1.33;;;;;;;;;;5250251;27;20819;-79
2024/04/21 15:20:08;;;;;;;1.80;1.50;;;;;;;;;;5250776;27;20456;-78
2024/04/21 15:22:34;;;;;;;1.53;1.43;;;;;;;;;;5241885;27;21088;-77
2024/04/21 15:25:00;;;;;;;1.30;1.30;;;;;;;;;;5218017;27;20473;-76
2024/04/21 15:27:28;;;;;;;1.40;1.30;;;;;;;;;;5245177;27;20539;-77
2024/04/21 15:29:54;;;;;;;1.30;1.20;;;;;;;;;;5245778;27;20540;-77
2024/04/21 15:32:19;;;;;;;1.37;1.30;;;;;;;;;;5244849;27;20456;-77
2024/04/21 15:34:46;;;;;;;1.50;1.40;;;;;;;;;;5245868;27;20467;-77
2024/04/21 15:37:12;;;;;;;8.37;1.53;;;;;;;;;;5219488;27;20566;-78
2024/04/21 15:39:38;;;;;;;2.00;1.20;;;;;;;;;;5213087;27;20457;-77
2024/04/21 15:42:04;;;;;;;1.30;1.20;;;;;;;;;;5182230;27;20612;-78
2024/04/21 15:44:30;;;;;;;1.60;1.30;;;;;;;;;;5183357;27;20477;-78
2024/04/21 15:46:56;;;;;;;1.83;1.70;;;;;;;;;;5210917;27;20505;-78
2024/04/21 15:49:22;;;;;;;1.57;1.30;;;;;;;;;;5212381;27;20453;-77
2024/04/21 15:51:48;;;;;;;2.80;1.60;;;;;;;;;;5216682;27;20507;-77
2024/04/21 15:54:14;;;;;;;1.37;1.27;;;;;;;;;;5190119;27;20843;-77
2024/04/21 15:56:40;;;;;;;1.70;1.40;;;;;;;;;;5221933;27;20453;-77
2024/04/21 15:59:06;;;;;;;2.43;1.43;;;;;;;;;;5215525;27;20961;-77
2024/04/21 16:01:32;;;;;;;1.23;1.13;;;;;;;;;;5214448;27;20457;-77
2024/04/21 16:03:59;;;;;;;1.83;1.70;;;;;;;;;;5186327;27;20532;-78
2024/04/21 16:06:25;;;;;;;1.50;1.40;;;;;;;;;;5223623;27;20523;-77
2024/04/21 16:08:51;;;;;;;1.57;1.47;;;;;;;;;;5248903;27;20510;-77
2024/04/21 16:11:16;;;;;;;2.50;1.60;;;;;;;;;;5247076;27;20455;-77
2024/04/21 16:13:42;;;;;;;2.60;1.50;;;;;;;;;;5217091;27;20582;-78
2024/04/21 16:16:08;;;;;;;1.90;1.80;;;;;;;;;;5246260;27;20519;-78
2024/04/21 16:18:34;;;;;;;2.10;1.63;;;;;;;;;;5217147;27;20460;-78
2024/04/21 16:21:00;;;;;;;2.27;2.00;;;;;;;;;;5246848;27;20455;-77
2024/04/21 16:23:26;;;;;;;2.47;2.30;;;;;;;;;;5246776;27;20468;-77
2024/04/21 16:25:52;;;;;;;3.63;2.20;;;;;;;;;;5216988;27;20562;-77
2024/04/21 16:28:18;;;;;;;2.00;1.90;;;;;;;;;;5246751;27;20448;-77
2024/04/21 16:30:44;;;;;;;2.13;1.97;;;;;;;;;;5247401;27;20451;-77
2024/04/21 16:33:10;;;;;;;2.60;2.27;;;;;;;;;;5224550;27;21067;-77
2024/04/21 16:35:36;;;;;;;2.50;2.30;;;;;;;;;;5214004;27;20501;-78
2024/04/21 16:38:02;;;;;;;6.30;2.20;;;;;;;;;;5212416;27;20457;-77
2024/04/21 16:40:30;;;;;;;3.13;2.50;;;;;;;;;;5213230;27;20453;-77
2024/04/21 16:42:56;;;;;;;2.23;2.10;;;;;;;;;;5212754;27;20453;-77
2024/04/21 16:45:22;;;;;;;3.20;2.30;;;;;;;;;;5213097;27;20576;-77
2024/04/21 16:47:49;;;;;;;3.47;2.50;;;;;;;;;;5217702;27;20460;-77
2024/04/21 16:50:15;;;;;;;2.70;2.40;;;;;;;;;;5216860;27;20461;-77
2024/04/21 16:52:41;;;;;;;3.73;2.50;;;;;;;;;;5183784;27;20464;-77
2024/04/21 16:55:08;;;;;;;2.30;2.03;;;;;;;;;;5213150;27;20548;-77
2024/04/21 16:57:36;;;;;;;2.33;1.90;;;;;;;;;;5213351;27;20503;-77
2024/04/21 17:00:03;;;;;;;2.77;2.53;;;;;;;;;;5220816;27;20524;-77
2024/04/21 17:02:30;;;;;;;3.70;2.17;;;;;;;;;;5247961;27;20932;-76
2024/04/21 17:04:56;;;;;;;7.10;2.53;;;;;;;;;;5248135;27;20475;-77
2024/04/21 17:07:22;;;;;;;5.33;2.40;;;;;;;;;;5244437;27;20468;-78
2024/04/21 17:09:51;;;;;;;2.13;2.00;;;;;;;;;;5247325;27;20456;-77
2024/04/21 17:12:19;;;;;;;5.03;2.50;;;;;;;;;;5245316;27;20500;-77
2024/04/21 17:14:45;;;;;;;4.90;2.30;;;;;;;;;;5258529;22;20538;-72
2024/04/21 17:17:11;;;;;;;3.33;2.70;;;;;;;;;;5243369;27;20455;-73
2024/04/21 17:19:37;;;;;;;3.03;1.80;;;;;;;;;;5242301;27;20566;-71
2024/04/21 17:22:03;;;;;;;2.33;2.13;;;;;;;;;;5244093;27;20504;-71
2024/04/21 17:24:29;;;;;;;2.53;2.33;;;;;;;;;;5243835;27;21065;-73
2024/04/21 17:26:56;;;;;;;3.30;2.40;;;;;;;;;;5243605;27;20488;-71
2024/04/21 17:29:22;;;;;;;2.50;2.30;;;;;;;;;;5243269;27;20479;-71
2024/04/21 17:31:48;;;;;;;4.37;3.00;;;;;;;;;;5242302;27;21094;-72
2024/04/21 17:34:14;;;;;;;3.37;3.20;;;;;;;;;;5244189;27;20595;-72
2024/04/21 17:36:39;;;;;;;6.80;3.10;;;;;;;;;;5242311;27;20498;-72
2024/04/21 17:39:06;;;;;;;6.77;3.03;;;;;;;;;;5238362;27;20444;-72
2024/04/21 17:41:32;;;;;;;5.83;3.23;;;;;;;;;;5211540;27;20980;-72
2024/04/21 17:43:58;;;;;;;3.53;2.77;;;;;;;;;;5211175;27;20509;-72
2024/04/21 17:46:24;;;;;;;3.63;2.97;;;;;;;;;;5211037;27;20588;-72
2024/04/21 17:48:50;;;;;;;3.13;2.60;;;;;;;;;;5210714;27;20452;-72
2024/04/21 17:51:16;;;;;;;5.80;4.20;;;;;;;;;;5210855;27;20501;-72
2024/04/21 17:53:42;;;;;;;2.90;2.70;;;;;;;;;;5210878;27;20501;-72
2024/04/21 17:56:08;;;;;;;3.87;2.83;;;;;;;;;;5210578;27;20445;-73
2024/04/21 17:58:34;;;;;;;6.13;3.13;;;;;;;;;;5210053;27;20493;-72
2024/04/21 18:01:00;;;;;;;4.77;3.30;;;;;;;;;;5211130;27;20445;-73
2024/04/21 18:03:26;;;;;;;4.07;2.83;;;;;;;;;;5211118;27;20445;-73
2024/04/21 18:05:52;;;;;;;4.47;2.60;;;;;;;;;;5210905;27;20988;-72
2024/04/21 18:08:18;;;;;;;4.73;3.57;;;;;;;;;;5228129;27;20472;-73
2024/04/21 18:10:58;;;;;;;4.37;3.40;;;;;;;;;;5243937;27;20447;-72
2024/04/21 18:13:24;;;;;;;4.03;3.20;;;;;;;;;;5233530;27;20484;-72
2024/04/21 18:15:50;;;;;;;5.90;3.20;;;;;;;;;;5212812;27;20473;-71
2024/04/21 18:18:15;;;;;;;6.27;3.67;;;;;;;;;;5210217;27;20469;-71
2024/04/21 18:20:41;;;;;;;4.23;3.50;;;;;;;;;;5210529;27;20461;-71
2024/04/21 18:23:07;;;;;;;6.03;3.93;;;;;;;;;;5211040;27;20461;-71
2024/04/21 18:25:33;;;;;;;5.07;3.50;;;;;;;;;;5208748;27;20477;-71
2024/04/21 18:27:59;;;;;;;5.13;3.70;;;;;;;;;;5208054;27;20853;-71
2024/04/21 18:30:25;;;;;;;4.80;3.47;;;;;;;;;;5210265;27;20460;-71
2024/04/21 18:32:51;;;;;;;4.30;3.53;;;;;;;;;;5210344;27;20461;-72
2024/04/21 18:35:18;;;;;;;4.07;3.27;;;;;;;;;;5209945;27;21017;-71
2024/04/21 18:37:44;;;;;;;7.27;4.27;;;;;;;;;;5207215;27;20521;-72
2024/04/21 18:40:10;;;;;;;4.17;3.57;;;;;;;;;;5209668;27;20461;-72
2024/04/21 18:42:36;;;;;;;6.57;4.50;;;;;;;;;;5209685;27;20816;-71
2024/04/21 18:45:02;;;;;;;4.40;3.33;;;;;;;;;;5209261;27;20489;-72
2024/04/21 18:47:28;;;;;;;3.60;3.13;;;;;;;;;;5208712;27;20854;-72
2024/04/21 18:49:54;;;;;;;7.70;4.60;;;;;;;;;;5207530;27;20464;-71
2024/04/21 18:52:20;;;;;;;7.27;4.80;;;;;;;;;;5209210;27;21089;-72
2024/04/21 18:54:46;;;;;;;6.00;4.30;;;;;;;;;;5211141;27;21098;-71
2024/04/21 18:57:12;;;;;;;5.17;3.60;;;;;;;;;;5209642;27;20457;-71
2024/04/21 18:59:38;;;;;;;7.00;4.40;;;;;;;;;;5207568;27;20461;-72
2024/04/21 19:02:07;;;;;;;4.27;3.23;;;;;;;;;;5207635;27;20548;-72
2024/04/21 19:04:33;;;;;;;5.87;3.73;;;;;;;;;;5229657;27;20472;-71
2024/04/21 19:07:02;;;;;;;10.30;4.27;;;;;;;;;;5242294;27;20455;-72
2024/04/21 19:09:30;;;;;;;6.50;4.27;;;;;;;;;;5242785;27;20511;-72
2024/04/21 19:11:56;;;;;;;5.90;3.90;;;;;;;;;;5242313;27;20451;-71
2024/04/21 19:14:23;;;;;;;5.57;3.90;;;;;;;;;;5240844;27;20475;-72
2024/04/21 19:16:49;;;;;;;4.37;3.30;;;;;;;;;;5236968;27;20475;-72
2024/04/21 19:19:15;;;;;;;3.90;3.43;;;;;;;;;;5242508;27;20444;-71
2024/04/21 19:21:42;;;;;;;4.80;3.70;;;;;;;;;;5240788;27;20559;-71
2024/04/21 19:24:08;;;;;;;6.30;4.10;;;;;;;;;;5218448;27;20537;-72
2024/04/21 19:26:34;;;;;;;6.57;4.27;;;;;;;;;;5209321;27;20461;-72
2024/04/21 19:29:00;;;;;;;6.03;4.37;;;;;;;;;;5208218;27;20532;-72
2024/04/21 19:31:26;;;;;;;7.50;4.63;;;;;;;;;;5209496;27;20524;-75
2024/04/21 19:33:52;;;;;;;8.67;5.30;;;;;;;;;;5207861;27;21066;-74